Time;durP1;ratioP1;P1;durP2;ratioP2;P2;SDS_P1;SDS_P2;PMS_P1;PMS_P2;Temp;Humidity;BMP_temperature;BMP_pressure;BME280_temperature;BME280_humidity;BME280_pressure;Samples;Min_cycle;Max_cycle;Signal;HPM_P1;HPM_P2
2021/01/05 00:00:20;;;;;;;9.32;8.25;;;;;;;1.32;97.14;101561.38;5160239;29;20050;-71
2021/01/05 00:02:52;;;;;;;10.20;9.20;;;;;;;1.28;97.17;101559.78;5159377;29;20039;-70
2021/01/05 00:05:23;;;;;;;9.57;8.57;;;;;;;1.30;98.08;101560.59;5158941;29;20114;-71
2021/01/05 00:07:55;;;;;;;10.15;9.07;;;;;;;1.29;98.21;101571.78;5143959;29;20106;-71
2021/01/05 00:10:26;;;;;;;10.38;9.32;;;;;;;1.28;97.84;101562.38;5140585;29;20059;-72
2021/01/05 00:12:57;;;;;;;11.05;9.18;;;;;;;1.23;98.91;101559.13;5166652;28;20100;-71
2021/01/05 00:15:28;;;;;;;10.15;9.15;;;;;;;1.29;99.71;101564.94;5160226;29;20492;-69
2021/01/05 00:18:00;;;;;;;10.80;9.45;;;;;;;1.29;98.78;101567.50;5159915;28;20027;-70
2021/01/05 00:20:32;;;;;;;10.05;9.05;;;;;;;1.29;97.96;101566.63;5168084;28;20485;-71
2021/01/05 00:23:03;;;;;;;11.27;9.88;;;;;;;1.30;98.10;101569.19;5143319;28;20138;-70
2021/01/05 00:25:35;;;;;;;10.77;9.68;;;;;;;1.29;97.67;101562.34;5140110;29;20039;-69
2021/01/05 00:28:06;;;;;;;10.85;9.70;;;;;;;1.33;96.35;101557.91;5139406;29;20035;-71
2021/01/05 00:30:38;;;;;;;10.48;9.40;;;;;;;1.26;96.42;101548.69;5160176;29;20409;-72
2021/01/05 00:33:10;;;;;;;10.45;9.35;;;;;;;1.35;95.54;101567.28;5152847;29;20030;-71
2021/01/05 00:35:41;;;;;;;10.02;9.02;;;;;;;1.36;94.46;101568.09;5143246;29;20406;-70
2021/01/05 00:38:12;;;;;;;10.50;9.43;;;;;;;1.34;95.55;101568.19;5148328;29;20030;-69
2021/01/05 00:40:43;;;;;;;10.38;9.27;;;;;;;1.36;97.09;101570.69;5142819;29;20090;-69
2021/01/05 00:43:15;;;;;;;10.30;9.30;;;;;;;1.36;96.69;101568.94;5151756;28;20016;-69
2021/01/05 00:45:46;;;;;;;11.05;9.85;;;;;;;1.34;95.56;101562.19;5176672;28;20111;-70
2021/01/05 00:48:17;;;;;;;10.68;9.60;;;;;;;1.36;95.18;101562.94;5159739;29;20118;-69
2021/01/05 00:50:48;;;;;;;10.57;9.55;;;;;;;1.37;96.07;101565.50;5158219;29;20054;-69
2021/01/05 00:53:20;;;;;;;10.95;9.50;;;;;;;1.38;95.71;101571.50;5151033;28;20024;-69
2021/01/05 00:55:51;;;;;;;10.18;9.18;;;;;;;1.39;93.25;101571.44;5159425;28;20031;-69
2021/01/05 00:58:23;;;;;;;10.95;9.85;;;;;;;1.37;93.47;101572.41;5158280;29;20054;-70
2021/01/05 01:00:55;;;;;;;10.38;9.38;;;;;;;1.33;96.04;101565.66;5157679;29;20105;-70
2021/01/05 01:03:27;;;;;;;11.35;9.32;;;;;;;1.38;94.94;101572.34;5150817;29;20497;-72
2021/01/05 01:05:58;;;;;;;10.45;8.98;;;;;;;1.38;94.20;101577.50;5136420;29;20027;-69
2021/01/05 01:08:29;;;;;;;11.50;10.27;;;;;;;1.41;94.67;101576.56;5158369;29;20023;-69
2021/01/05 01:11:00;;;;;;;11.93;10.65;;;;;;;1.33;94.27;101565.66;5158949;29;20031;-73
2021/01/05 01:13:32;;;;;;;11.20;9.10;;;;;;;1.30;93.27;101558.03;5158000;29;20386;-69
2021/01/05 01:16:04;;;;;;;9.93;8.73;;;;;;;1.39;91.18;101573.19;5155294;29;20474;-69
2021/01/05 01:18:36;;;;;;;12.03;10.73;;;;;;;1.38;92.68;101571.50;5158073;29;20118;-69
2021/01/05 01:21:07;;;;;;;10.77;9.50;;;;;;;1.35;92.07;101576.75;5157840;28;20370;-69
2021/01/05 01:23:39;;;;;;;11.40;10.25;;;;;;;1.35;92.76;101576.75;5158846;29;20512;-69
2021/01/05 01:26:10;;;;;;;11.95;10.75;;;;;;;1.36;92.08;101579.28;5154306;29;20038;-69
2021/01/05 01:28:43;;;;;;;13.43;11.48;;;;;;;1.34;92.60;101583.66;5157734;29;20085;-70
2021/01/05 01:31:14;;;;;;;13.23;11.82;;;;;;;1.34;91.91;101588.00;5158804;29;20515;-69
2021/01/05 01:33:45;;;;;;;12.68;11.38;;;;;;;1.35;94.99;101582.75;5157050;29;20027;-70
2021/01/05 01:36:18;;;;;;;13.15;11.75;;;;;;;1.35;93.51;101587.94;5149966;28;20064;-70
2021/01/05 01:38:50;;;;;;;14.03;12.17;;;;;;;1.36;93.10;101581.84;5157586;29;20036;-71
2021/01/05 01:41:21;;;;;;;13.85;12.32;;;;;;;1.34;91.99;101588.81;5143110;29;20027;-71
2021/01/05 01:43:53;;;;;;;14.32;12.23;;;;;;;1.40;91.53;101577.44;5156618;28;20082;-71
2021/01/05 01:46:29;;;;;;;13.55;12.02;;;;;;;1.35;93.67;101587.94;5151910;29;20449;-71
2021/01/05 01:49:01;;;;;;;14.25;12.75;;;;;;;1.33;94.10;101587.16;5158794;29;20086;-71
2021/01/05 01:51:32;;;;;;;13.63;11.85;;;;;;;1.36;92.59;101589.59;5157667;28;20026;-70
2021/01/05 01:54:28;;;;;;;13.65;12.25;;;;;;;1.33;93.55;101589.72;5165225;28;20035;-69
2021/01/05 01:57:22;;;;;;;14.15;12.65;;;;;;;1.35;92.42;101598.25;5136508;29;20118;-69
2021/01/05 02:00:08;;;;;;;13.93;12.25;;;;;;;1.36;92.31;101596.50;5115782;29;20047;-72
2021/01/05 02:02:47;;;;;;;14.63;12.70;;;;;;;1.33;92.50;101604.38;5149362;29;20379;-69
2021/01/05 02:05:30;;;;;;;14.25;12.32;;;;;;;1.33;93.63;101594.91;5158375;29;20035;-69
2021/01/05 02:08:24;;;;;;;15.70;12.20;;;;;;;1.34;94.13;101590.56;5154240;29;20035;-69
2021/01/05 02:11:09;;;;;;;14.27;12.38;;;;;;;1.34;92.09;101593.16;5138675;29;20245;-69
2021/01/05 02:14:05;;;;;;;15.35;12.73;;;;;;;1.35;92.67;101594.84;5154334;29;20031;-69
2021/01/05 02:16:55;;;;;;;14.98;12.40;;;;;;;1.35;91.40;101582.75;5139495;28;20114;-69
2021/01/05 02:19:40;;;;;;;17.33;13.07;;;;;;;1.38;92.09;101584.41;5139818;29;20043;-69
2021/01/05 02:22:51;;;;;;;15.25;12.73;;;;;;;1.39;92.54;101586.09;5140314;29;20031;-69
2021/01/05 02:25:56;;;;;;;15.98;12.73;;;;;;;1.40;93.53;101578.31;5137522;29;20031;-69
2021/01/05 02:28:38;;;;;;;14.80;12.80;;;;;;;1.35;92.98;101576.75;5151449;29;20110;-69
2021/01/05 02:31:42;;;;;;;15.05;13.40;;;;;;;1.38;94.40;101572.34;5153669;28;20031;-69
2021/01/05 02:34:32;;;;;;;;;;;;;;;1.46;92.60;101580.66;5138487;29;20032;-69
2021/01/05 02:37:15;;;;;;;15.10;12.82;;;;;;;1.40;92.83;101567.97;5160094;28;19954;-70
2021/01/05 02:40:09;;;;;;;16.42;13.43;;;;;;;1.40;94.77;101577.44;5156651;29;20055;-71
2021/01/05 02:42:49;;;;;;;17.35;13.75;;;;;;;1.40;95.19;101570.56;5121789;29;20531;-69
2021/01/05 02:45:56;;;;;;;16.88;13.55;;;;;;;1.42;95.13;101570.50;5157320;29;20031;-70
2021/01/05 02:48:30;;;;;;;16.23;14.35;;;;;;;1.41;95.80;101576.56;5140202;29;20393;-69
2021/01/05 02:51:42;;;;;;;17.65;14.88;;;;;;;1.44;96.44;101574.72;5151125;28;20469;-69
2021/01/05 02:54:32;;;;;;;18.33;15.02;;;;;;;1.43;95.31;101572.16;5154646;28;20524;-69
2021/01/05 02:57:09;;;;;;;17.77;15.00;;;;;;;1.40;94.86;101570.56;5154804;28;20035;-69
2021/01/05 03:00:13;;;;;;;18.25;15.13;;;;;;;1.45;95.25;101565.22;5150291;29;20027;-69
2021/01/05 03:03:22;;;;;;;17.70;14.40;;;;;;;1.45;95.55;101578.13;5153967;29;20066;-72
2021/01/05 03:06:23;;;;;;;17.38;14.68;;;;;;;1.40;94.56;101564.53;5141449;29;20398;-70
2021/01/05 03:09:27;;;;;;;18.70;15.02;;;;;;;1.45;95.01;101562.66;5160590;29;20033;-69
2021/01/05 03:12:27;;;;;;;18.58;14.48;;;;;;;1.45;95.48;101570.38;5127310;29;21056;-69
2021/01/05 03:15:17;;;;;;;20.58;15.93;;;;;;;1.44;96.07;101563.56;5148243;29;20048;-72
2021/01/05 03:17:54;;;;;;;17.48;14.75;;;;;;;1.39;96.49;101563.69;5160309;29;20082;-70
2021/01/05 03:20:35;;;;;;;21.25;16.90;;;;;;;1.41;96.68;101561.06;5159899;29;20019;-72
2021/01/05 03:23:09;;;;;;;20.83;16.10;;;;;;;1.41;96.45;101561.91;5161452;29;20038;-69
2021/01/05 03:25:45;;;;;;;18.45;15.45;;;;;;;1.41;98.00;101559.31;5160501;29;20026;-69
2021/01/05 03:28:22;;;;;;;20.10;16.50;;;;;;;1.42;96.47;101562.75;5159664;29;20023;-69
2021/01/05 03:31:03;;;;;;;22.15;16.83;;;;;;;1.42;96.27;101557.59;5152589;28;20497;-71
2021/01/05 03:33:35;;;;;;;20.45;16.65;;;;;;;1.39;96.15;101562.84;5158877;29;20409;-69
2021/01/05 03:36:06;;;;;;;22.20;17.67;;;;;;;1.31;96.97;101547.63;5160010;29;20038;-69
2021/01/05 03:38:37;;;;;;;21.08;17.20;;;;;;;1.40;97.33;101560.22;5159250;28;20162;-70
2021/01/05 03:41:09;;;;;;;20.50;17.08;;;;;;;1.39;98.09;101565.44;5159636;29;20038;-69
2021/01/05 03:43:40;;;;;;;19.58;16.67;;;;;;;1.41;96.94;101563.66;5162500;28;20034;-71
2021/01/05 03:46:12;;;;;;;19.67;15.85;;;;;;;1.42;97.57;101568.75;5156043;28;20071;-71
2021/01/05 03:48:43;;;;;;;18.85;15.63;;;;;;;1.37;96.20;101562.06;5144544;29;20035;-71
2021/01/05 03:51:15;;;;;;;20.05;16.58;;;;;;;1.41;96.93;101569.66;5147281;29;20030;-74
2021/01/05 03:53:46;;;;;;;19.60;16.38;;;;;;;1.41;96.21;101567.06;5180248;28;20022;-70
2021/01/05 03:56:18;;;;;;;20.20;16.23;;;;;;;1.42;97.26;101566.16;5160451;28;20023;-72
2021/01/05 03:58:49;;;;;;;19.65;16.45;;;;;;;1.44;95.83;101568.72;5159911;29;20023;-69
2021/01/05 04:01:20;;;;;;;18.05;14.85;;;;;;;1.41;95.62;101561.91;5159635;28;20047;-71
2021/01/05 04:03:52;;;;;;;19.73;15.93;;;;;;;1.44;95.98;101559.22;5159962;29;20110;-71
2021/01/05 04:06:26;;;;;;;20.08;16.70;;;;;;;1.45;95.66;101563.47;5144630;28;20046;-71
2021/01/05 04:08:58;;;;;;;17.85;15.23;;;;;;;1.44;96.00;101563.56;5159764;28;20111;-71
2021/01/05 04:11:29;;;;;;;18.98;14.88;;;;;;;1.45;96.91;101560.06;5140012;29;20108;-70
2021/01/05 04:14:00;;;;;;;19.50;16.00;;;;;;;1.44;95.87;101558.38;5154424;29;20024;-70
2021/01/05 04:16:32;;;;;;;20.65;16.48;;;;;;;1.42;94.50;101560.16;5144027;29;20027;-71
2021/01/05 04:19:03;;;;;;;18.92;16.23;;;;;;;1.44;95.54;101555.81;5175437;28;20031;-71
2021/01/05 04:21:35;;;;;;;18.83;16.20;;;;;;;1.42;94.55;101555.00;5178262;28;20033;-70
2021/01/05 04:24:06;;;;;;;19.45;16.02;;;;;;;1.44;95.77;101551.47;5148860;29;20493;-71
2021/01/05 04:26:37;;;;;;;18.90;15.45;;;;;;;1.45;96.29;101552.31;5138614;29;20035;-71
2021/01/05 04:29:09;;;;;;;17.17;15.05;;;;;;;1.45;94.19;101552.31;5157940;29;20122;-71
2021/01/05 04:31:42;;;;;;;17.92;15.00;;;;;;;1.45;96.04;101549.72;5159540;29;20042;-71
2021/01/05 04:34:16;;;;;;;18.52;15.48;;;;;;;1.45;95.74;101553.16;5159399;29;20035;-71
2021/01/05 04:36:47;;;;;;;17.75;14.52;;;;;;;1.46;95.58;101560.00;5155174;29;20074;-70
2021/01/05 04:39:18;;;;;;;17.10;13.85;;;;;;;1.49;92.85;101553.88;5152576;28;20065;-71
2021/01/05 04:42:16;;;;;;;17.25;14.60;;;;;;;1.50;95.28;101558.16;5153726;29;20081;-71
2021/01/05 04:44:59;;;;;;;18.15;15.57;;;;;;;1.46;94.84;101562.56;5143177;29;20047;-71
2021/01/05 04:47:39;;;;;;;17.98;15.02;;;;;;;1.48;94.09;101561.66;5159733;28;20039;-71
2021/01/05 04:50:27;;;;;;;18.30;15.30;;;;;;;1.47;95.18;101563.41;5145649;29;20118;-70
2021/01/05 04:53:11;;;;;;;18.33;15.15;;;;;;;1.48;96.08;101565.13;5150480;29;20098;-71
2021/01/05 04:55:46;;;;;;;18.25;15.13;;;;;;;1.46;95.99;101560.00;5159571;29;20519;-70
2021/01/05 04:58:52;;;;;;;18.52;15.63;;;;;;;1.49;94.15;101566.81;5159786;29;20031;-70
2021/01/05 05:01:27;;;;;;;18.15;14.50;;;;;;;1.42;95.84;101560.16;5143020;28;20130;-71
2021/01/05 05:04:24;;;;;;;18.48;14.75;;;;;;;1.46;93.28;101569.47;5155622;29;20035;-71
2021/01/05 05:07:12;;;;;;;18.00;14.52;;;;;;;1.42;94.66;101562.75;5153143;28;20608;-70
2021/01/05 05:10:02;;;;;;;18.48;15.07;;;;;;;1.50;94.71;101572.81;5158504;29;20469;-71
2021/01/05 05:12:44;;;;;;;18.40;15.27;;;;;;;1.48;93.69;101572.00;5142831;29;20482;-70
2021/01/05 05:15:37;;;;;;;17.83;14.02;;;;;;;1.48;94.74;101575.44;5153005;29;20102;-71
2021/01/05 05:18:23;;;;;;;17.80;13.90;;;;;;;1.47;93.12;101576.31;5158125;28;20066;-71
2021/01/05 05:21:03;;;;;;;16.17;13.45;;;;;;;1.46;94.31;101584.97;5158995;29;20031;-71
2021/01/05 05:23:57;;;;;;;18.98;15.55;;;;;;;1.46;95.68;101580.66;5154367;29;20036;-71
2021/01/05 05:26:39;;;;;;;18.30;14.98;;;;;;;1.46;94.28;101584.97;5142668;29;20495;-71
2021/01/05 05:29:29;;;;;;;18.48;15.18;;;;;;;1.46;94.58;101580.66;5158031;28;20118;-71
2021/01/05 05:32:03;;;;;;;18.92;15.40;;;;;;;1.48;95.40;101587.50;5157350;29;20469;-70
2021/01/05 05:34:52;;;;;;;18.92;14.80;;;;;;;1.46;94.29;101583.22;5148669;29;20031;-70
2021/01/05 05:37:33;;;;;;;18.95;15.05;;;;;;;1.48;94.42;101578.03;5156334;29;20027;-71
2021/01/05 05:40:17;;;;;;;18.30;15.05;;;;;;;1.52;94.29;101581.34;5152278;28;20631;-71
2021/01/05 05:42:55;;;;;;;19.80;15.93;;;;;;;1.46;96.28;101577.22;5152872;29;20434;-71
2021/01/05 05:45:33;;;;;;;18.70;14.98;;;;;;;1.47;95.72;101584.06;5121675;29;20032;-69
2021/01/05 05:48:14;;;;;;;19.02;15.35;;;;;;;1.47;94.66;101578.91;5151029;29;20035;-71
2021/01/05 05:51:03;;;;;;;20.73;16.48;;;;;;;1.45;94.82;101586.72;5154259;29;20085;-71
2021/01/05 05:53:50;;;;;;;19.98;16.50;;;;;;;1.49;95.02;101587.47;5157549;29;20025;-71
2021/01/05 05:56:44;;;;;;;19.95;16.40;;;;;;;1.50;95.88;101591.72;5156022;29;20031;-71
2021/01/05 05:59:16;;;;;;;;;;;;;;;1.52;94.55;101589.94;5156154;29;20039;-71
2021/01/05 06:01:47;;;;;;;18.80;15.27;;;;;;;1.46;95.45;101590.16;5150349;29;19925;-71
2021/01/05 06:04:21;;;;;;;19.48;16.02;;;;;;;1.47;96.25;101594.41;5150200;28;20155;-70
2021/01/05 06:06:53;;;;;;;20.15;16.45;;;;;;;1.47;97.20;101589.22;5158436;29;20577;-71
2021/01/05 06:09:24;;;;;;;19.67;16.02;;;;;;;1.49;95.75;101594.38;5157369;29;20069;-71
2021/01/05 06:11:55;;;;;;;22.92;16.98;;;;;;;1.43;97.21;101585.91;5166457;28;20035;-71
2021/01/05 06:14:27;;;;;;;18.65;15.13;;;;;;;1.49;94.71;101600.38;5158051;29;20031;-71
2021/01/05 06:16:58;;;;;;;19.67;15.50;;;;;;;1.48;95.55;101593.53;5137336;29;20692;-71
2021/01/05 06:19:29;;;;;;;21.33;16.63;;;;;;;1.49;95.88;101597.78;5144131;29;20539;-71
2021/01/05 06:22:00;;;;;;;19.55;15.95;;;;;;;1.49;95.82;101597.78;5157777;29;20030;-71
2021/01/05 06:24:32;;;;;;;21.90;15.35;;;;;;;1.50;95.82;101596.88;5152032;29;20039;-71
2021/01/05 06:27:03;;;;;;;20.90;15.63;;;;;;;1.54;94.88;101598.47;5157767;29;20031;-71
2021/01/05 06:29:34;;;;;;;19.48;15.65;;;;;;;1.54;95.55;101602.78;5157546;29;20042;-71
2021/01/05 06:32:05;;;;;;;20.85;16.30;;;;;;;1.51;96.38;101603.72;5157303;29;20050;-70
2021/01/05 06:34:37;;;;;;;19.27;15.85;;;;;;;1.53;94.56;101609.69;5155567;29;20059;-70
2021/01/05 06:37:08;;;;;;;21.23;16.48;;;;;;;1.50;94.57;101606.38;5157422;29;20023;-71
2021/01/05 06:39:40;;;;;;;19.27;15.73;;;;;;;1.54;94.73;101606.19;5143822;28;20035;-70
2021/01/05 06:42:11;;;;;;;16.30;14.40;;;;;;;1.54;95.30;101616.53;5160042;28;20023;-71
2021/01/05 06:44:43;;;;;;;18.30;16.00;;;;;;;1.53;94.73;101614.00;5172683;28;20165;-71
2021/01/05 06:47:15;;;;;;;20.17;16.05;;;;;;;1.51;95.97;101605.47;5146494;28;20378;-71
2021/01/05 06:49:46;;;;;;;19.98;15.50;;;;;;;1.54;95.37;101610.53;5142138;29;20148;-71
2021/01/05 06:52:17;;;;;;;18.60;15.50;;;;;;;1.54;93.52;101608.78;5152701;29;20024;-71
2021/01/05 06:54:49;;;;;;;20.00;15.18;;;;;;;1.56;93.53;101611.34;5174940;28;20035;-70
2021/01/05 06:57:20;;;;;;;18.55;15.07;;;;;;;1.56;93.57;101612.19;5165188;28;20495;-70
2021/01/05 06:59:51;;;;;;;18.50;14.90;;;;;;;1.55;94.89;101618.22;5149687;29;20474;-71
2021/01/05 07:02:22;;;;;;;18.25;14.50;;;;;;;1.48;94.97;101593.53;5151519;29;20039;-71
2021/01/05 07:04:55;;;;;;;18.48;15.15;;;;;;;1.55;94.79;101610.47;5150442;29;20031;-71
2021/01/05 07:07:26;;;;;;;18.70;15.20;;;;;;;1.56;96.17;101609.59;5150191;29;20038;-70
2021/01/05 07:09:57;;;;;;;16.73;13.85;;;;;;;1.57;93.10;101618.19;5146480;29;20046;-71
2021/01/05 07:12:28;;;;;;;15.90;13.98;;;;;;;1.58;92.90;101618.13;5146237;29;20071;-72
2021/01/05 07:15:00;;;;;;;18.02;14.35;;;;;;;1.56;94.16;101613.91;5158169;29;20027;-71
2021/01/05 07:17:32;;;;;;;18.20;13.85;;;;;;;1.59;93.77;101616.38;5158813;28;20035;-71
2021/01/05 07:20:05;;;;;;;16.30;13.50;;;;;;;1.59;94.13;101616.38;5151734;29;20031;-71
2021/01/05 07:22:37;;;;;;;16.23;14.02;;;;;;;1.57;93.24;101613.00;5153026;29;20708;-70
2021/01/05 07:25:11;;;;;;;19.38;13.98;;;;;;;1.59;94.01;101621.53;5153018;28;20031;-71
2021/01/05 07:27:43;;;;;;;18.67;14.45;;;;;;;1.59;94.74;101622.41;5146955;28;20631;-72
2021/01/05 07:30:14;;;;;;;17.35;14.02;;;;;;;1.60;95.18;101628.41;5147570;28;20031;-71
2021/01/05 07:32:46;;;;;;;17.20;13.75;;;;;;;1.60;94.71;101626.66;5149163;29;20046;-71
2021/01/05 07:35:17;;;;;;;17.83;14.07;;;;;;;1.61;94.01;101633.50;5150027;28;20019;-71
2021/01/05 07:37:48;;;;;;;18.25;14.40;;;;;;;1.61;92.62;101628.34;5151312;28;20041;-71
2021/01/05 07:40:20;;;;;;;15.70;13.32;;;;;;;1.58;93.79;101631.03;5149467;28;20078;-71
2021/01/05 07:42:51;;;;;;;16.92;13.88;;;;;;;1.59;93.39;101634.44;5150959;29;20390;-70
2021/01/05 07:45:23;;;;;;;15.68;13.70;;;;;;;1.61;94.81;101635.25;5149117;29;20031;-70
2021/01/05 07:47:55;;;;;;;17.20;14.15;;;;;;;1.62;93.86;101636.94;5152326;28;20465;-70
2021/01/05 07:50:26;;;;;;;16.33;13.32;;;;;;;1.63;93.69;101643.78;5154626;29;20451;-70
2021/01/05 07:52:58;;;;;;;16.67;13.57;;;;;;;1.62;93.21;101642.94;5144628;28;20047;-71
2021/01/05 07:55:31;;;;;;;16.08;13.10;;;;;;;1.63;93.94;101638.59;5143879;28;20038;-70
2021/01/05 07:58:02;;;;;;;17.38;13.65;;;;;;;1.63;93.38;101654.97;5153914;28;20030;-70
2021/01/05 08:00:33;;;;;;;17.83;14.32;;;;;;;1.60;93.91;101642.16;5150709;28;20827;-70
2021/01/05 08:03:05;;;;;;;16.48;13.60;;;;;;;1.61;93.26;101643.84;5150994;29;20035;-72
2021/01/05 08:05:36;;;;;;;17.90;14.15;;;;;;;1.62;94.92;101648.09;5150361;28;20555;-71
2021/01/05 08:08:08;;;;;;;17.02;13.75;;;;;;;1.62;93.34;101652.44;5155200;29;20086;-72
2021/01/05 08:10:40;;;;;;;15.85;13.35;;;;;;;1.64;93.23;101645.47;5152930;28;20054;-72
2021/01/05 08:13:12;;;;;;;16.75;13.57;;;;;;;1.64;93.04;101641.16;5151209;29;20034;-74
2021/01/05 08:15:43;;;;;;;16.08;13.35;;;;;;;1.64;94.19;101641.16;5155466;29;20031;-70
2021/01/05 08:18:15;;;;;;;16.92;13.95;;;;;;;1.66;94.14;101636.75;5149463;28;20035;-74
2021/01/05 08:20:46;;;;;;;17.40;13.38;;;;;;;1.65;95.63;101645.41;5155488;29;20030;-71
2021/01/05 08:23:18;;;;;;;17.25;14.05;;;;;;;1.64;93.97;101643.75;5151230;29;20781;-69
2021/01/05 08:25:50;;;;;;;18.50;14.65;;;;;;;1.64;93.79;101651.47;5148438;29;20035;-71
2021/01/05 08:28:21;;;;;;;17.20;13.63;;;;;;;1.66;95.09;101648.84;5148918;28;20027;-73
2021/01/05 08:30:52;;;;;;;17.17;14.02;;;;;;;1.66;94.15;101654.00;5152409;28;20027;-71
2021/01/05 08:33:23;;;;;;;16.65;13.98;;;;;;;1.66;94.56;101660.00;5155725;29;20015;-70
2021/01/05 08:35:55;;;;;;;17.13;14.07;;;;;;;1.68;93.86;101654.81;5149690;29;20027;-70
2021/01/05 08:38:26;;;;;;;19.17;14.00;;;;;;;1.65;94.89;101650.56;5154527;28;20038;-70
2021/01/05 08:40:57;;;;;;;17.45;13.63;;;;;;;1.61;94.57;101651.59;5150935;28;20077;-71
2021/01/05 08:43:29;;;;;;;17.23;13.35;;;;;;;1.66;94.47;101652.25;5152505;28;20035;-70
2021/01/05 08:46:00;;;;;;;15.70;12.73;;;;;;;1.66;93.84;101664.34;5151979;28;20035;-70
2021/01/05 08:48:31;;;;;;;19.88;15.10;;;;;;;1.68;95.25;101668.56;5150934;28;20083;-70
2021/01/05 08:51:03;;;;;;;18.65;14.60;;;;;;;1.68;95.59;101655.66;5151293;29;20024;-69
2021/01/05 08:53:34;;;;;;;19.05;14.13;;;;;;;1.70;94.69;101655.59;5154972;28;20628;-70
2021/01/05 08:56:24;;;;;;;19.08;14.55;;;;;;;1.73;93.57;101663.22;5157401;29;20051;-71
2021/01/05 08:58:57;;;;;;;19.25;14.27;;;;;;;1.70;96.21;101661.63;5137945;29;20180;-71
2021/01/05 09:01:29;;;;;;;18.83;14.82;;;;;;;1.69;95.74;101670.25;5148306;29;20401;-70
2021/01/05 09:04:00;;;;;;;21.73;14.93;;;;;;;1.71;95.41;101670.19;5148531;28;20053;-71
2021/01/05 09:06:32;;;;;;;20.17;14.95;;;;;;;1.70;93.79;101669.38;5153944;29;20295;-71
2021/01/05 09:09:03;;;;;;;20.52;14.52;;;;;;;1.70;93.45;101669.38;5144419;29;20461;-71
2021/01/05 09:11:34;;;;;;;20.92;15.63;;;;;;;1.72;95.88;101676.22;5147326;29;20446;-70
2021/01/05 09:14:06;;;;;;;21.13;15.57;;;;;;;1.72;93.61;101673.63;5156206;29;20030;-70
2021/01/05 09:16:37;;;;;;;20.60;15.45;;;;;;;1.72;95.37;101671.88;5149387;28;20523;-69
2021/01/05 09:19:08;;;;;;;21.75;15.18;;;;;;;1.72;93.58;101678.78;5133156;28;20042;-71
2021/01/05 09:21:40;;;;;;;20.77;15.80;;;;;;;1.66;94.11;101664.34;5145442;28;20868;-71
2021/01/05 09:24:11;;;;;;;22.40;15.45;;;;;;;1.72;93.97;101669.31;5135104;29;20417;-71
2021/01/05 09:26:43;;;;;;;22.63;15.88;;;;;;;1.74;94.41;101675.25;5145347;28;20070;-71
2021/01/05 09:29:14;;;;;;;23.75;15.13;;;;;;;1.65;94.88;101660.06;5144831;29;20038;-71
2021/01/05 09:31:48;;;;;;;20.75;14.60;;;;;;;1.77;92.29;101676.88;5148204;29;20097;-71
2021/01/05 09:34:22;;;;;;;21.80;15.80;;;;;;;1.78;93.27;101670.81;5151528;29;20042;-72
2021/01/05 09:36:53;;;;;;;22.63;15.77;;;;;;;1.77;93.61;101680.31;5149611;29;20066;-71
2021/01/05 09:39:24;;;;;;;22.80;15.00;;;;;;;1.78;92.61;101671.69;5150518;28;20028;-71
2021/01/05 09:41:59;;;;;;;22.65;15.32;;;;;;;1.79;92.47;101680.28;5150672;28;20043;-70
2021/01/05 09:44:31;;;;;;;21.45;16.10;;;;;;;1.78;95.05;101669.09;5148033;28;20122;-70
2021/01/05 09:47:02;;;;;;;24.65;16.58;;;;;;;1.81;94.74;101683.63;5148503;29;20553;-72
2021/01/05 09:49:33;;;;;;;23.65;16.58;;;;;;;1.83;95.03;101676.69;5149646;29;20106;-70
2021/01/05 09:52:05;;;;;;;24.40;15.68;;;;;;;1.85;93.38;101669.69;5147077;29;20028;-72
2021/01/05 09:54:36;;;;;;;23.70;16.50;;;;;;;1.84;93.14;101676.63;5151874;28;20038;-73
2021/01/05 09:57:07;;;;;;;26.23;16.63;;;;;;;1.84;94.33;101670.63;5145814;29;20772;-72
2021/01/05 09:59:39;;;;;;;24.38;16.98;;;;;;;1.79;94.36;101662.19;5149943;28;20038;-73
2021/01/05 10:02:11;;;;;;;23.25;16.77;;;;;;;1.85;93.80;101673.13;5148743;29;20137;-69
2021/01/05 10:04:42;;;;;;;26.35;18.00;;;;;;;1.86;93.25;101676.59;5148626;29;20069;-73
2021/01/05 10:07:14;;;;;;;27.00;17.10;;;;;;;1.84;92.54;101663.69;5144995;29;20051;-71
2021/01/05 10:09:45;;;;;;;26.60;16.92;;;;;;;1.81;94.36;101663.78;5148499;28;20421;-70
2021/01/05 10:12:16;;;;;;;21.73;16.40;;;;;;;1.88;93.47;101673.03;5131756;29;20015;-70
2021/01/05 10:14:48;;;;;;;24.85;16.95;;;;;;;1.90;93.72;101678.16;5148907;29;20027;-69
2021/01/05 10:17:19;;;;;;;26.65;17.40;;;;;;;1.91;94.03;101674.66;5150883;28;20066;-70
2021/01/05 10:19:50;;;;;;;23.58;15.80;;;;;;;1.91;92.28;101677.25;5150491;28;20552;-70
2021/01/05 10:22:22;;;;;;;24.15;16.73;;;;;;;1.83;91.86;101662.03;5148114;29;20508;-74
2021/01/05 10:24:53;;;;;;;23.63;16.52;;;;;;;1.94;93.45;101682.31;5144992;28;20810;-73
2021/01/05 10:27:25;;;;;;;24.15;16.00;;;;;;;1.93;93.63;101671.16;5151899;28;20031;-71
2021/01/05 10:29:57;;;;;;;23.90;16.60;;;;;;;1.86;91.55;101649.00;5147600;28;20524;-69
2021/01/05 10:32:30;;;;;;;24.15;16.77;;;;;;;1.97;92.37;101664.13;5131570;29;20556;-70
2021/01/05 10:35:01;;;;;;;22.47;15.63;;;;;;;1.98;90.37;101672.72;5143194;29;20016;-69
2021/01/05 10:37:32;;;;;;;21.30;15.70;;;;;;;1.98;93.31;101670.97;5142179;28;20028;-70
2021/01/05 10:40:06;;;;;;;24.90;17.08;;;;;;;1.97;91.06;101669.28;5152607;28;20039;-70
2021/01/05 10:42:45;;;;;;;21.92;15.82;;;;;;;2.00;91.12;101674.31;5149305;28;20031;-71
2021/01/05 10:45:20;;;;;;;24.85;17.23;;;;;;;1.96;90.34;101672.75;5144247;28;20043;-70
2021/01/05 10:47:52;;;;;;;22.42;16.00;;;;;;;2.00;90.81;101678.66;5150603;28;20038;-73
2021/01/05 10:50:25;;;;;;;22.95;15.82;;;;;;;2.03;90.16;101673.38;5149707;28;20027;-71
2021/01/05 10:52:56;;;;;;;20.55;14.70;;;;;;;2.04;89.79;101669.91;5156710;28;20078;-69
2021/01/05 10:55:27;;;;;;;21.27;15.50;;;;;;;2.06;89.96;101668.13;5146618;29;20054;-69
2021/01/05 10:57:59;;;;;;;21.35;14.85;;;;;;;2.05;91.28;101669.84;5150028;28;20054;-69
2021/01/05 11:00:30;;;;;;;21.63;15.80;;;;;;;2.05;90.90;101675.03;5148981;28;21331;-69
2021/01/05 11:03:01;;;;;;;20.77;14.32;;;;;;;2.05;91.27;101662.09;5140708;29;20110;-69
2021/01/05 11:05:33;;;;;;;23.23;15.90;;;;;;;2.07;89.75;101669.78;5149106;28;20039;-70
2021/01/05 11:08:08;;;;;;;22.35;15.48;;;;;;;2.04;91.31;101659.56;5149417;29;20063;-71
2021/01/05 11:10:39;;;;;;;22.10;16.70;;;;;;;2.05;91.99;101667.28;5148168;29;20024;-69
2021/01/05 11:13:10;;;;;;;20.80;15.07;;;;;;;2.06;91.55;101671.53;5147039;28;20038;-70
2021/01/05 11:15:42;;;;;;;23.85;15.85;;;;;;;2.09;92.32;101666.25;5149570;29;20023;-73
2021/01/05 11:18:13;;;;;;;20.88;15.27;;;;;;;2.09;92.23;101671.44;5146250;29;20489;-69
2021/01/05 11:20:44;;;;;;;24.48;17.58;;;;;;;2.11;90.91;101664.44;5146113;28;20031;-71
2021/01/05 11:23:16;;;;;;;26.55;17.85;;;;;;;2.06;92.49;101661.19;5144525;29;20035;-69
2021/01/05 11:25:47;;;;;;;25.80;17.63;;;;;;;2.04;94.44;101660.41;5143592;28;20027;-73
2021/01/05 11:28:19;;;;;;;27.50;19.27;;;;;;;2.05;93.88;101661.25;5143942;28;20031;-70
2021/01/05 11:30:50;;;;;;;25.17;18.50;;;;;;;2.04;93.41;101649.22;5149016;29;20505;-69
2021/01/05 11:33:21;;;;;;;25.27;18.38;;;;;;;2.05;93.28;101646.59;5149994;28;20496;-69
2021/01/05 11:35:53;;;;;;;27.42;18.90;;;;;;;2.06;92.89;101650.84;5148010;28;20042;-71
2021/01/05 11:38:24;;;;;;;25.00;18.77;;;;;;;2.07;92.56;101643.94;5150793;29;20063;-70
2021/01/05 11:40:55;;;;;;;27.20;19.58;;;;;;;1.91;93.11;101620.41;5153158;29;20115;-71
2021/01/05 11:43:27;;;;;;;26.73;18.60;;;;;;;2.06;94.49;101639.69;5150464;28;20039;-71
2021/01/05 11:45:58;;;;;;;28.48;19.05;;;;;;;2.07;94.19;101639.63;5152543;29;20254;-72
2021/01/05 11:48:29;;;;;;;24.25;18.50;;;;;;;2.09;93.96;101637.84;5151248;29;20054;-71
2021/01/05 11:51:00;;;;;;;25.85;19.13;;;;;;;2.07;93.41;101626.69;5150797;28;20517;-71
2021/01/05 11:53:32;;;;;;;24.83;17.98;;;;;;;2.12;91.78;101627.38;5156029;28;20020;-71
2021/01/05 11:56:03;;;;;;;27.27;19.40;;;;;;;2.15;92.42;101621.25;5151864;29;20034;-71